Time;durP1;ratioP1;P1;durP2;ratioP2;P2;SDS_P1;SDS_P2;PMS_P1;PMS_P2;Temp;Humidity;BMP_temperature;BMP_pressure;BME280_temperature;BME280_humidity;BME280_pressure;Samples;Min_cycle;Max_cycle;Signal;HPM_P1;HPM_P2
2021/10/11 00:00:26;;;;;;;;;;;9.50;72.60;;;;;;5038448;28;88200;-49
2021/10/11 00:02:51;;;;;;;;;;;9.40;72.80;;;;;;5039687;28;87299;-53
2021/10/11 00:05:17;;;;;;;;;;;9.40;73.30;;;;;;5039470;28;89005;-48
2021/10/11 00:07:42;;;;;;;;;;;9.40;72.80;;;;;;5036567;28;89511;-49
2021/10/11 00:10:09;;;;;;;;;;;9.40;72.70;;;;;;5040124;28;87263;-47
2021/10/11 00:12:35;;;;;;;;;;;9.40;72.60;;;;;;5036022;28;89393;-48
2021/10/11 00:15:01;;;;;;;;;;;9.50;72.40;;;;;;5035931;28;87140;-49
2021/10/11 00:17:26;;;;;;;;;;;9.50;72.70;;;;;;5036575;28;87143;-49
2021/10/11 00:19:52;;;;;;;;;;;9.40;72.60;;;;;;5037472;28;87676;-48
2021/10/11 00:22:18;;;;;;;;;;;9.40;72.50;;;;;;5039304;28;86437;-49
2021/10/11 00:24:44;;;;;;;;;;;9.40;72.90;;;;;;5039374;28;87132;-48
2021/10/11 00:27:09;;;;;;;;;;;9.50;72.50;;;;;;5039918;28;87848;-51
2021/10/11 00:29:35;;;;;;;;;;;9.50;72.60;;;;;;5040935;28;88743;-52
2021/10/11 00:32:03;;;;;;;;;;;9.50;73.10;;;;;;5035263;28;87636;-48
2021/10/11 00:34:29;;;;;;;;;;;9.50;72.80;;;;;;5039915;28;88787;-50
2021/10/11 00:36:54;;;;;;;;;;;9.50;72.60;;;;;;5039210;28;88071;-50
2021/10/11 00:39:20;;;;;;;;;;;9.40;72.50;;;;;;5035377;28;88342;-50
2021/10/11 00:41:46;;;;;;;;;;;9.50;72.50;;;;;;5036332;28;87201;-49
2021/10/11 00:44:11;;;;;;;;;;;9.50;72.60;;;;;;5037596;28;87123;-48
2021/10/11 00:46:37;;;;;;;;;;;9.40;73.20;;;;;;5039022;28;87648;-48
2021/10/11 00:49:02;;;;;;;;;;;9.40;72.50;;;;;;5040067;28;87124;-51
2021/10/11 00:51:28;;;;;;;;;;;9.50;72.70;;;;;;5040728;28;89283;-47
2021/10/11 00:53:54;;;;;;;;;;;9.40;72.50;;;;;;5037806;28;88970;-47
2021/10/11 00:56:20;;;;;;;;;;;9.50;72.70;;;;;;5039420;28;88446;-48
2021/10/11 00:58:45;;;;;;;;;;;9.40;72.50;;;;;;5039589;28;88669;-48
2021/10/11 01:01:11;;;;;;;;;;;9.50;72.80;;;;;;5041229;28;87232;-50
2021/10/11 01:03:37;;;;;;;;;;;9.40;72.50;;;;;;5042232;28;88714;-50
2021/10/11 01:06:03;;;;;;;;;;;9.40;72.50;;;;;;5042155;28;88777;-48
2021/10/11 01:08:29;;;;;;;;;;;9.50;72.40;;;;;;5042440;28;87173;-49
2021/10/11 01:10:55;;;;;;;;;;;9.50;72.50;;;;;;5043376;28;87335;-49
2021/10/11 01:13:21;;;;;;;;;;;9.40;72.50;;;;;;5045688;28;87807;-51
2021/10/11 01:15:46;;;;;;;;;;;9.50;72.60;;;;;;5040745;28;88669;-48
2021/10/11 01:18:12;;;;;;;;;;;9.50;72.60;;;;;;5037606;28;90265;-48
2021/10/11 01:20:37;;;;;;;;;;;9.50;72.40;;;;;;5040268;28;88740;-48
2021/10/11 01:23:03;;;;;;;;;;;9.50;72.50;;;;;;5038859;28;87130;-52
2021/10/11 01:25:28;;;;;;;;;;;9.40;72.50;;;;;;5038357;28;87812;-49
2021/10/11 01:27:54;;;;;;;;;;;9.40;72.50;;;;;;5039982;28;87143;-49
2021/10/11 01:30:19;;;;;;;;;;;9.50;72.60;;;;;;5041276;28;87614;-49
2021/10/11 01:32:46;;;;;;;;;;;9.40;72.40;;;;;;5041839;28;89680;-50
2021/10/11 01:35:12;;;;;;;;;;;9.50;72.70;;;;;;5045753;28;86440;-49
2021/10/11 01:37:38;;;;;;;;;;;9.50;72.90;;;;;;5042688;28;88170;-48
2021/10/11 01:40:05;;;;;;;;;;;9.50;72.40;;;;;;5040633;28;88652;-47
2021/10/11 01:42:30;;;;;;;;;;;9.40;72.50;;;;;;5041545;28;90565;-48
2021/10/11 01:44:56;;;;;;;;;;;9.40;72.50;;;;;;5038992;28;88446;-48
2021/10/11 01:47:22;;;;;;;;;;;9.40;72.50;;;;;;5038669;28;87189;-48
2021/10/11 01:49:48;;;;;;;;;;;9.40;72.40;;;;;;5038472;28;88997;-47
2021/10/11 01:52:13;;;;;;;;;;;9.40;72.50;;;;;;5039384;28;88240;-48
2021/10/11 01:54:39;;;;;;;;;;;9.40;72.40;;;;;;5040764;28;87253;-49
2021/10/11 01:57:04;;;;;;;;;;;9.40;72.50;;;;;;5044817;28;87179;-49
2021/10/11 01:59:30;;;;;;;;;;;9.40;72.50;;;;;;5041299;28;87348;-49
2021/10/11 02:01:55;;;;;;;;;;;9.50;72.40;;;;;;5037757;28;87752;-49
2021/10/11 02:04:21;;;;;;;;;;;9.40;72.50;;;;;;5038322;28;87359;-50
2021/10/11 02:06:46;;;;;;;;;;;9.40;72.50;;;;;;5039560;28;88073;-49
2021/10/11 02:09:12;;;;;;;;;;;9.40;72.60;;;;;;5041488;28;87908;-49
2021/10/11 02:11:37;;;;;;;;;;;9.50;72.20;;;;;;5041549;28;88191;-48
2021/10/11 02:14:03;;;;;;;;;;;9.50;72.30;;;;;;5042177;28;87221;-48
2021/10/11 02:16:28;;;;;;;;;;;9.50;72.60;;;;;;5038926;28;88495;-48
2021/10/11 02:18:54;;;;;;;;;;;9.50;72.30;;;;;;5040616;28;87784;-48
2021/10/11 02:21:19;;;;;;;;;;;9.40;72.50;;;;;;5039161;28;88651;-49
2021/10/11 02:23:45;;;;;;;;;;;9.40;72.30;;;;;;5040735;28;87550;-48
2021/10/11 02:26:10;;;;;;;;;;;9.40;72.30;;;;;;5041781;28;87190;-49
2021/10/11 02:28:36;;;;;;;;;;;9.40;72.40;;;;;;5042050;28;87618;-48
2021/10/11 02:31:01;;;;;;;;;;;9.50;72.40;;;;;;5039291;28;89684;-48
2021/10/11 02:33:27;;;;;;;;;;;9.40;72.40;;;;;;5037247;28;87261;-53
2021/10/11 02:35:53;;;;;;;;;;;9.40;72.70;;;;;;5037967;28;89661;-48
2021/10/11 02:38:18;;;;;;;;;;;9.40;72.30;;;;;;5042028;28;87763;-48
2021/10/11 02:40:44;;;;;;;;;;;9.40;72.90;;;;;;5039000;28;88883;-48
2021/10/11 02:43:09;;;;;;;;;;;9.40;72.70;;;;;;5039993;28;87782;-48
2021/10/11 02:45:35;;;;;;;;;;;9.40;72.30;;;;;;5041665;28;87215;-49
2021/10/11 02:48:04;;;;;;;;;;;9.50;72.20;;;;;;5039965;28;88282;-48
2021/10/11 02:50:30;;;;;;;;;;;9.40;72.30;;;;;;5038878;28;87579;-49
2021/10/11 02:52:55;;;;;;;;;;;9.40;72.50;;;;;;5040518;28;87183;-48
2021/10/11 02:55:21;;;;;;;;;;;9.50;72.40;;;;;;5041197;28;88075;-47
2021/10/11 02:57:46;;;;;;;;;;;9.40;72.40;;;;;;5038503;28;89591;-49
2021/10/11 03:00:12;;;;;;;;;;;9.40;72.50;;;;;;5039878;28;87245;-49
2021/10/11 03:02:38;;;;;;;;;;;9.40;72.50;;;;;;5036931;28;89551;-48
2021/10/11 03:05:03;;;;;;;;;;;9.50;72.30;;;;;;5036690;28;87157;-49
2021/10/11 03:07:29;;;;;;;;;;;9.50;72.30;;;;;;5037127;28;87224;-50
2021/10/11 03:09:54;;;;;;;;;;;9.40;72.40;;;;;;5038068;28;88093;-49
2021/10/11 03:12:20;;;;;;;;;;;9.50;72.50;;;;;;5040166;28;86465;-49
2021/10/11 03:14:46;;;;;;;;;;;9.50;71.90;;;;;;5040492;28;87213;-50
2021/10/11 03:17:11;;;;;;;;;;;9.40;72.30;;;;;;5039401;28;88054;-48
2021/10/11 03:19:37;;;;;;;;;;;9.40;72.60;;;;;;5036417;28;89003;-50
2021/10/11 03:22:02;;;;;;;;;;;9.40;72.50;;;;;;5039890;28;88400;-48
2021/10/11 03:24:28;;;;;;;;;;;9.40;72.50;;;;;;5038303;28;87240;-49
2021/10/11 03:26:54;;;;;;;;;;;9.50;72.50;;;;;;5039339;28;88851;-50
2021/10/11 03:29:19;;;;;;;;;;;9.50;72.50;;;;;;5040239;28;88198;-50
2021/10/11 03:31:45;;;;;;;;;;;9.40;72.40;;;;;;5039877;28;87889;-48
2021/10/11 03:34:12;;;;;;;;;;;9.40;72.70;;;;;;5036936;28;88127;-49
2021/10/11 03:36:38;;;;;;;;;;;9.50;72.60;;;;;;5037853;28;88882;-49
2021/10/11 03:39:04;;;;;;;;;;;9.50;73.00;;;;;;5037844;28;88804;-51
2021/10/11 03:41:29;;;;;;;;;;;9.50;72.60;;;;;;5036191;28;89125;-50
2021/10/11 03:43:55;;;;;;;;;;;9.50;73.50;;;;;;5039616;28;89189;-48
2021/10/11 03:46:20;;;;;;;;;;;9.50;72.20;;;;;;5038649;28;87155;-47
2021/10/11 03:48:46;;;;;;;;;;;9.50;72.20;;;;;;5038339;28;88055;-49
2021/10/11 03:51:12;;;;;;;;;;;9.50;72.60;;;;;;5039742;28;87197;-49
2021/10/11 03:53:38;;;;;;;;;;;9.40;72.70;;;;;;5040768;28;87766;-48
2021/10/11 03:56:03;;;;;;;;;;;9.40;72.70;;;;;;5039694;28;88401;-50
2021/10/11 03:58:29;;;;;;;;;;;9.40;72.70;;;;;;5036565;28;88176;-48
2021/10/11 04:00:54;;;;;;;;;;;9.40;72.70;;;;;;5037526;28;86909;-48
2021/10/11 04:03:20;;;;;;;;;;;9.40;72.70;;;;;;5036201;28;88221;-49
2021/10/11 04:05:45;;;;;;;;;;;9.40;72.80;;;;;;5038953;28;87198;-49
2021/10/11 04:08:13;;;;;;;;;;;9.50;72.80;;;;;;5035478;28;89564;-49
2021/10/11 04:10:56;;;;;;;;;;;9.40;72.70;;;;;;5039802;28;87218;-48
2021/10/11 04:13:22;;;;;;;;;;;9.40;72.50;;;;;;5037822;28;87971;-47
2021/10/11 04:15:48;;;;;;;;;;;9.40;72.80;;;;;;5038275;28;89448;-49
2021/10/11 04:18:17;;;;;;;;;;;9.50;72.90;;;;;;5039500;28;87145;-49
2021/10/11 04:20:43;;;;;;;;;;;9.40;72.80;;;;;;5036514;28;88793;-47
2021/10/11 04:23:08;;;;;;;;;;;9.40;72.90;;;;;;5036895;28;88373;-47
2021/10/11 04:25:34;;;;;;;;;;;9.40;72.50;;;;;;5038713;28;86397;-49
2021/10/11 04:27:59;;;;;;;;;;;9.40;72.90;;;;;;5044447;28;87217;-51
2021/10/11 04:30:25;;;;;;;;;;;9.40;72.90;;;;;;5043366;28;87962;-49
2021/10/11 04:32:50;;;;;;;;;;;9.50;72.80;;;;;;5039602;28;89571;-49
2021/10/11 04:35:16;;;;;;;;;;;9.40;72.50;;;;;;5039584;28;87865;-48
2021/10/11 04:37:42;;;;;;;;;;;9.40;72.60;;;;;;5041240;28;87185;-49
2021/10/11 04:40:08;;;;;;;;;;;9.40;72.90;;;;;;5041495;28;88423;-48
2021/10/11 04:42:34;;;;;;;;;;;9.50;72.60;;;;;;5041535;28;88313;-48
2021/10/11 04:44:59;;;;;;;;;;;9.50;72.70;;;;;;5043340;28;87170;-49
2021/10/11 04:47:25;;;;;;;;;;;9.40;72.80;;;;;;5044464;28;89388;-48
2021/10/11 04:49:50;;;;;;;;;;;9.40;72.50;;;;;;5039449;28;86450;-48
2021/10/11 04:52:16;;;;;;;;;;;9.40;72.60;;;;;;5040123;28;87206;-51
2021/10/11 04:54:41;;;;;;;;;;;9.40;72.60;;;;;;5039954;28;88522;-48
2021/10/11 04:57:07;;;;;;;;;;;9.50;72.60;;;;;;5040127;28;88172;-48
2021/10/11 04:59:32;;;;;;;;;;;9.50;72.40;;;;;;5042223;28;87730;-49
2021/10/11 05:01:58;;;;;;;;;;;9.40;72.70;;;;;;5043099;28;87873;-51
2021/10/11 05:04:23;;;;;;;;;;;9.40;72.60;;;;;;5041033;28;88413;-49
2021/10/11 05:06:49;;;;;;;;;;;9.40;72.70;;;;;;5039005;28;87269;-49
2021/10/11 05:09:14;;;;;;;;;;;9.40;72.50;;;;;;5042826;28;88203;-49
2021/10/11 05:11:40;;;;;;;;;;;9.40;72.60;;;;;;5041661;28;87244;-51
2021/10/11 05:14:06;;;;;;;;;;;9.40;72.70;;;;;;5042642;28;87736;-50
2021/10/11 05:16:34;;;;;;;;;;;9.40;72.60;;;;;;5042213;28;87284;-49
2021/10/11 05:19:00;;;;;;;;;;;9.40;72.50;;;;;;5041113;28;89006;-50
2021/10/11 05:21:25;;;;;;;;;;;9.50;72.70;;;;;;5040756;28;89674;-49
2021/10/11 05:23:51;;;;;;;;;;;9.50;72.30;;;;;;5042763;28;87229;-52
2021/10/11 05:26:17;;;;;;;;;;;9.40;72.50;;;;;;5040622;28;88671;-52
2021/10/11 05:28:42;;;;;;;;;;;9.40;72.50;;;;;;5038014;28;89936;-48
2021/10/11 05:31:08;;;;;;;;;;;9.40;72.50;;;;;;5041883;28;87196;-48
2021/10/11 05:33:34;;;;;;;;;;;9.40;72.80;;;;;;5038973;28;89278;-51
2021/10/11 05:36:00;;;;;;;;;;;9.40;72.50;;;;;;5039950;28;87151;-50
2021/10/11 05:38:26;;;;;;;;;;;9.40;72.50;;;;;;5039422;28;89139;-48
2021/10/11 05:40:52;;;;;;;;;;;9.40;72.40;;;;;;5039827;28;88755;-50
2021/10/11 05:43:17;;;;;;;;;;;9.50;73.50;;;;;;5041555;28;87167;-52
2021/10/11 05:45:43;;;;;;;;;;;9.50;72.60;;;;;;5042377;28;88099;-49
2021/10/11 05:48:08;;;;;;;;;;;9.40;72.50;;;;;;5039450;28;88108;-50
2021/10/11 05:50:34;;;;;;;;;;;9.40;72.50;;;;;;5038527;28;87189;-48
2021/10/11 05:53:00;;;;;;;;;;;9.40;72.60;;;;;;5042265;28;87678;-47
2021/10/11 05:55:28;;;;;;;;;;;9.50;72.40;;;;;;5039377;28;87119;-48
2021/10/11 05:57:53;;;;;;;;;;;9.40;72.40;;;;;;5037587;28;87317;-48
2021/10/11 06:00:19;;;;;;;;;;;9.40;72.40;;;;;;5037551;28;88719;-51
2021/10/11 06:02:44;;;;;;;;;;;9.40;72.60;;;;;;5039711;28;86429;-53
2021/10/11 06:05:10;;;;;;;;;;;9.40;73.30;;;;;;5040464;28;87254;-52
2021/10/11 06:07:35;;;;;;;;;;;9.40;72.80;;;;;;5041338;28;88167;-53
2021/10/11 06:10:01;;;;;;;;;;;9.40;72.80;;;;;;5041044;28;88209;-49
2021/10/11 06:12:27;;;;;;;;;;;9.40;72.60;;;;;;5038358;28;88841;-50
2021/10/11 06:14:52;;;;;;;;;;;9.40;72.90;;;;;;5040832;28;87602;-51
2021/10/11 06:17:18;;;;;;;;;;;9.40;72.80;;;;;;5039090;28;88695;-52
2021/10/11 06:19:44;;;;;;;;;;;9.40;72.90;;;;;;5039784;28;87340;-50
2021/10/11 06:22:09;;;;;;;;;;;9.40;72.80;;;;;;5041394;28;87158;-50
2021/10/11 06:24:35;;;;;;;;;;;9.40;72.90;;;;;;5041613;28;87931;-49
2021/10/11 06:27:03;;;;;;;;;;;9.40;72.80;;;;;;5038372;28;87450;-47
2021/10/11 06:29:28;;;;;;;;;;;9.40;73.00;;;;;;5041495;28;87175;-49
2021/10/11 06:31:54;;;;;;;;;;;9.40;72.80;;;;;;5040738;28;87682;-48
2021/10/11 06:34:20;;;;;;;;;;;9.40;72.90;;;;;;5036014;28;91649;-47
2021/10/11 06:36:46;;;;;;;;;;;9.40;72.80;;;;;;5040084;28;87193;-48
2021/10/11 06:39:11;;;;;;;;;;;9.40;73.00;;;;;;5038173;28;88245;-48
2021/10/11 06:41:37;;;;;;;;;;;9.50;72.60;;;;;;5039428;28;87221;-50
2021/10/11 06:44:02;;;;;;;;;;;9.40;72.60;;;;;;5040914;28;89283;-52
2021/10/11 06:46:28;;;;;;;;;;;9.50;72.50;;;;;;5041241;28;88051;-49
2021/10/11 06:48:53;;;;;;;;;;;9.40;72.50;;;;;;5038067;28;88656;-52
2021/10/11 06:51:19;;;;;;;;;;;9.50;72.50;;;;;;5038111;28;89077;-50
2021/10/11 06:53:45;;;;;;;;;;;9.40;72.50;;;;;;5038185;28;88406;-52
2021/10/11 06:56:10;;;;;;;;;;;9.50;73.00;;;;;;5042693;28;87172;-49
2021/10/11 06:58:36;;;;;;;;;;;9.50;72.60;;;;;;5039570;28;89309;-51
2021/10/11 07:01:01;;;;;;;;;;;9.40;72.60;;;;;;5040993;28;87169;-48
2021/10/11 07:03:27;;;;;;;;;;;9.50;72.50;;;;;;5040645;28;88647;-51
2021/10/11 07:05:57;;;;;;;;;;;9.50;72.50;;;;;;5037384;28;87901;-52
2021/10/11 07:08:23;;;;;;;;;;;9.40;72.50;;;;;;5038330;28;87173;-52
2021/10/11 07:10:53;;;;;;;;;;;9.50;72.60;;;;;;5039003;28;87748;-49
2021/10/11 07:13:18;;;;;;;;;;;9.40;72.50;;;;;;5040402;28;89235;-52
2021/10/11 07:15:44;;;;;;;;;;;9.50;72.50;;;;;;5040575;28;87402;-52
2021/10/11 07:18:09;;;;;;;;;;;9.50;72.70;;;;;;5039511;28;88231;-51
2021/10/11 07:20:35;;;;;;;;;;;9.50;72.60;;;;;;5037689;28;87132;-52
2021/10/11 07:23:01;;;;;;;;;;;9.50;72.60;;;;;;5038158;28;88433;-50
2021/10/11 07:25:26;;;;;;;;;;;9.50;72.60;;;;;;5039675;28;88636;-48
2021/10/11 07:27:52;;;;;;;;;;;9.50;72.60;;;;;;5040906;28;87199;-51
2021/10/11 07:30:17;;;;;;;;;;;9.50;72.50;;;;;;5038406;28;89235;-47
2021/10/11 07:32:43;;;;;;;;;;;9.50;72.30;;;;;;5036183;28;89642;-47
2021/10/11 07:35:08;;;;;;;;;;;9.50;72.50;;;;;;5037795;28;87208;-48
2021/10/11 07:37:34;;;;;;;;;;;9.50;72.60;;;;;;5038940;28;87749;-50
2021/10/11 07:39:59;;;;;;;;;;;9.50;72.40;;;;;;5043353;28;87855;-48
2021/10/11 07:42:25;;;;;;;;;;;9.50;72.60;;;;;;5039909;28;88931;-49
2021/10/11 07:44:50;;;;;;;;;;;9.50;72.60;;;;;;5039376;28;89552;-48
2021/10/11 07:47:16;;;;;;;;;;;9.50;72.30;;;;;;5036495;28;89035;-53
2021/10/11 07:49:41;;;;;;;;;;;9.50;72.70;;;;;;5036873;28;89454;-52
2021/10/11 07:52:07;;;;;;;;;;;9.50;72.40;;;;;;5036646;28;88188;-53
2021/10/11 07:54:32;;;;;;;;;;;9.50;72.60;;;;;;5037950;28;87109;-50
2021/10/11 07:56:58;;;;;;;;;;;9.60;72.50;;;;;;5039102;28;89159;-49
2021/10/11 07:59:25;;;;;;;;;;;9.50;72.30;;;;;;5039053;28;87653;-53
2021/10/11 08:01:51;;;;;;;;;;;9.60;72.30;;;;;;5040339;28;87128;-49
2021/10/11 08:04:16;;;;;;;;;;;9.60;72.50;;;;;;5039432;28;87466;-50
2021/10/11 08:06:42;;;;;;;;;;;9.60;72.10;;;;;;5040544;28;87171;-52
2021/10/11 08:09:09;;;;;;;;;;;9.60;72.30;;;;;;5038331;28;87832;-51
2021/10/11 08:11:35;;;;;;;;;;;9.60;72.30;;;;;;5039305;28;89916;-51
2021/10/11 08:14:01;;;;;;;;;;;9.60;72.60;;;;;;5038671;28;88039;-48
2021/10/11 08:16:27;;;;;;;;;;;9.60;72.10;;;;;;5038036;28;88879;-50
2021/10/11 08:18:52;;;;;;;;;;;9.60;72.40;;;;;;5035711;28;87912;-48
2021/10/11 08:21:18;;;;;;;;;;;9.60;72.40;;;;;;5037200;28;87207;-48
2021/10/11 08:23:43;;;;;;;;;;;9.60;72.50;;;;;;5040929;28;87152;-51
2021/10/11 08:26:09;;;;;;;;;;;9.60;72.30;;;;;;5039643;28;87157;-52
2021/10/11 08:28:38;;;;;;;;;;;9.60;72.40;;;;;;5040708;28;88654;-53
2021/10/11 08:31:04;;;;;;;;;;;9.60;72.20;;;;;;5036965;28;88255;-50
2021/10/11 08:33:29;;;;;;;;;;;9.60;72.30;;;;;;5038232;28;87265;-48
2021/10/11 08:35:55;;;;;;;;;;;9.60;72.30;;;;;;5037601;28;88208;-48
2021/10/11 08:38:20;;;;;;;;;;;9.60;72.40;;;;;;5038929;28;87633;-50
2021/10/11 08:40:47;;;;;;;;;;;9.60;72.30;;;;;;5039780;28;88825;-52
2021/10/11 08:43:12;;;;;;;;;;;9.60;72.60;;;;;;5042770;28;88827;-50
2021/10/11 08:45:38;;;;;;;;;;;9.60;72.70;;;;;;5038202;28;87906;-54
2021/10/11 08:48:04;;;;;;;;;;;9.60;72.70;;;;;;5039355;28;89053;-51
2021/10/11 08:50:30;;;;;;;;;;;9.60;72.70;;;;;;5036191;28;88692;-48
2021/10/11 08:52:55;;;;;;;;;;;9.60;72.80;;;;;;5036031;28;86397;-49
2021/10/11 08:55:21;;;;;;;;;;;9.70;72.50;;;;;;5035477;28;88807;-48
2021/10/11 08:57:46;;;;;;;;;;;9.60;72.80;;;;;;5035151;28;88571;-50
2021/10/11 09:00:12;;;;;;;;;;;9.70;72.80;;;;;;5035346;28;88104;-48
2021/10/11 09:02:51;;;;;;;;;;;9.70;72.70;;;;;;5036105;28;89703;-50
2021/10/11 09:05:26;;;;;;;;;;;9.60;73.40;;;;;;5040612;28;89582;-48
2021/10/11 09:08:02;;;;;;;;;;;9.70;73.10;;;;;;5037760;28;88880;-49
2021/10/11 09:10:28;;;;;;;;;;;9.70;72.80;;;;;;5034744;28;89687;-49
2021/10/11 09:12:54;;;;;;;;;;;9.70;73.00;;;;;;5035224;28;87139;-49
2021/10/11 09:15:20;;;;;;;;;;;9.70;73.00;;;;;;5038120;28;89123;-53
2021/10/11 09:17:54;;;;;;;;;;;9.70;73.10;;;;;;5039765;28;87268;-50
2021/10/11 09:20:20;;;;;;;;;;;9.70;72.60;;;;;;5041766;28;88209;-49
2021/10/11 09:22:47;;;;;;;;;;;9.70;73.00;;;;;;5043276;28;87198;-52
2021/10/11 09:25:13;;;;;;;;;;;9.70;72.60;;;;;;5040341;28;88838;-53
2021/10/11 09:27:42;;;;;;;;;;;9.80;72.50;;;;;;5042255;28;87194;-51
2021/10/11 09:30:08;;;;;;;;;;;9.70;72.80;;;;;;5040644;28;89641;-52
2021/10/11 09:32:33;;;;;;;;;;;9.70;72.70;;;;;;5040736;28;87165;-50
2021/10/11 09:35:34;;;;;;;;;;;9.80;72.80;;;;;;5041844;28;89267;-49
2021/10/11 09:38:00;;;;;;;;;;;9.70;72.70;;;;;;5019011;28;89636;-48
2021/10/11 09:40:26;;;;;;;;;;;9.70;73.00;;;;;;5033850;28;88573;-53
2021/10/11 09:42:51;;;;;;;;;;;9.70;73.10;;;;;;5038627;28;89245;-49
2021/10/11 09:45:26;;;;;;;;;;;9.70;73.10;;;;;;5039216;28;87966;-48
2021/10/11 09:47:51;;;;;;;;;;;9.80;73.20;;;;;;5042280;28;87189;-53
2021/10/11 09:50:17;;;;;;;;;;;9.80;73.00;;;;;;5045047;28;88146;-53
2021/10/11 09:52:43;;;;;;;;;;;9.80;73.20;;;;;;5041796;28;87122;-51
2021/10/11 09:55:10;;;;;;;;;;;9.80;72.80;;;;;;5039890;28;89090;-50
2021/10/11 09:57:35;;;;;;;;;;;9.80;72.80;;;;;;5037606;28;87795;-49
2021/10/11 10:00:03;;;;;;;;;;;9.70;73.00;;;;;;5038601;28;88908;-51
2021/10/11 10:02:31;;;;;;;;;;;9.80;73.30;;;;;;5041263;28;88617;-49
2021/10/11 10:04:57;;;;;;;;;;;9.80;73.70;;;;;;5038896;28;89058;-48
2021/10/11 10:07:26;;;;;;;;;;;9.80;72.90;;;;;;5038376;28;86437;-47
2021/10/11 10:09:52;;;;;;;;;;;9.80;73.60;;;;;;5042114;28;87260;-52
2021/10/11 10:12:18;;;;;;;;;;;9.80;72.70;;;;;;5043349;28;88295;-52
2021/10/11 10:14:43;;;;;;;;;;;9.90;73.10;;;;;;5041384;28;88254;-51
2021/10/11 10:17:09;;;;;;;;;;;9.90;73.00;;;;;;5040183;28;88675;-49
2021/10/11 10:19:39;;;;;;;;;;;9.90;72.90;;;;;;5037922;28;87330;-50
2021/10/11 10:22:17;;;;;;;;;;;9.90;73.00;;;;;;5039445;28;87162;-52
2021/10/11 10:24:43;;;;;;;;;;;10.00;73.00;;;;;;5039777;28;88031;-53
2021/10/11 10:27:17;;;;;;;;;;;10.00;72.90;;;;;;5041641;28;87281;-50
2021/10/11 10:29:47;;;;;;;;;;;10.00;72.60;;;;;;5039943;28;88089;-51
2021/10/11 10:32:13;;;;;;;;;;;10.00;73.00;;;;;;5037638;28;87683;-51
2021/10/11 10:34:39;;;;;;;;;;;10.00;73.10;;;;;;5040380;28;87144;-49
2021/10/11 10:37:09;;;;;;;;;;;10.00;73.10;;;;;;5037052;28;88753;-49
2021/10/11 10:39:45;;;;;;;;;;;10.00;72.90;;;;;;5036535;28;88087;-50
2021/10/11 10:42:26;;;;;;;;;;;10.00;73.50;;;;;;5036942;28;90826;-49
2021/10/11 10:44:52;;;;;;;;;;;10.00;72.80;;;;;;5037493;28;89107;-51
2021/10/11 10:47:29;;;;;;;;;;;10.00;72.90;;;;;;5038584;28;87199;-48
2021/10/11 10:49:54;;;;;;;;;;;10.10;72.90;;;;;;5037584;28;87111;-51
2021/10/11 10:52:20;;;;;;;;;;;10.00;72.60;;;;;;5038373;28;87246;-50
2021/10/11 10:54:50;;;;;;;;;;;10.10;73.10;;;;;;5042362;28;87097;-50
2021/10/11 10:57:23;;;;;;;;;;;10.00;72.70;;;;;;5040136;28;88818;-51
2021/10/11 10:59:50;;;;;;;;;;;10.10;72.90;;;;;;5037656;28;87194;-48
2021/10/11 11:02:15;;;;;;;;;;;10.00;73.10;;;;;;5038415;28;88949;-49
2021/10/11 11:04:50;;;;;;;;;;;10.00;73.40;;;;;;5036440;28;88791;-48
2021/10/11 11:07:21;;;;;;;;;;;10.10;72.90;;;;;;5039437;28;87632;-48
2021/10/11 11:09:47;;;;;;;;;;;10.10;73.00;;;;;;5039016;28;87216;-49
2021/10/11 11:12:13;;;;;;;;;;;10.10;73.10;;;;;;5039217;28;87620;-50
2021/10/11 11:14:43;;;;;;;;;;;10.10;73.10;;;;;;5038680;28;87167;-53
2021/10/11 11:17:13;;;;;;;;;;;10.10;73.00;;;;;;5043594;28;88720;-51
2021/10/11 11:19:40;;;;;;;;;;;10.10;72.80;;;;;;5041469;28;88579;-50
2021/10/11 11:22:06;;;;;;;;;;;10.10;73.00;;;;;;5041094;28;87497;-52
2021/10/11 11:24:32;;;;;;;;;;;10.10;73.10;;;;;;5040245;28;89536;-51
2021/10/11 11:27:00;;;;;;;;;;;10.00;73.40;;;;;;5040131;28;87154;-48
2021/10/11 11:29:25;;;;;;;;;;;10.00;73.70;;;;;;5037022;28;89276;-49
2021/10/11 11:31:54;;;;;;;;;;;10.10;73.50;;;;;;5038473;28;88170;-50
2021/10/11 11:34:20;;;;;;;;;;;10.20;73.60;;;;;;5040122;28;88052;-50
2021/10/11 11:36:49;;;;;;;;;;;10.10;73.20;;;;;;5039832;28;88213;-53
2021/10/11 11:39:15;;;;;;;;;;;10.20;73.60;;;;;;5041982;28;88799;-49
2021/10/11 11:41:48;;;;;;;;;;;10.10;73.10;;;;;;5038361;28;88227;-49
2021/10/11 11:44:20;;;;;;;;;;;10.20;73.50;;;;;;5038887;28;88034;-49
2021/10/11 11:46:46;;;;;;;;;;;10.20;73.60;;;;;;5038403;28;86382;-48
2021/10/11 11:49:23;;;;;;;;;;;10.10;73.30;;;;;;5038244;28;87140;-53
2021/10/11 11:51:48;;;;;;;;;;;10.20;73.60;;;;;;5037512;28;87295;-50
2021/10/11 11:54:17;;;;;;;;;;;10.10;73.70;;;;;;5037436;28;88093;-48
2021/10/11 11:56:42;;;;;;;;;;;10.20;73.60;;;;;;5037395;28;89496;-52
2021/10/11 11:59:08;;;;;;;;;;;10.20;73.80;;;;;;5035546;28;87762;-49
2021/10/11 12:01:33;;;;;;;;;;;10.20;73.70;;;;;;5039386;28;87131;-49
2021/10/11 12:04:01;;;;;;;;;;;10.20;73.50;;;;;;5036627;28;88106;-48
2021/10/11 12:06:28;;;;;;;;;;;10.20;73.60;;;;;;5039902;28;87795;-48
2021/10/11 12:08:54;;;;;;;;;;;10.20;73.80;;;;;;5039964;28;88522;-49
2021/10/11 12:11:19;;;;;;;;;;;10.20;73.40;;;;;;5040364;28;87993;-48
2021/10/11 12:13:45;;;;;;;;;;;10.20;74.00;;;;;;5040354;28;88790;-47
2021/10/11 12:16:15;;;;;;;;;;;10.30;74.30;;;;;;5040753;28;87759;-50
2021/10/11 12:18:42;;;;;;;;;;;10.20;74.40;;;;;;5034755;28;90562;-48
2021/10/11 12:21:26;;;;;;;;;;;10.30;74.20;;;;;;5037078;28;88736;-49
2021/10/11 12:23:53;;;;;;;;;;;10.20;74.10;;;;;;5040107;28;89047;-52
2021/10/11 12:26:22;;;;;;;;;;;10.20;74.00;;;;;;5036830;28;87204;-49
2021/10/11 12:28:50;;;;;;;;;;;10.20;74.70;;;;;;5038879;28;87199;-48
2021/10/11 12:31:19;;;;;;;;;;;10.10;74.90;;;;;;5035543;28;89088;-51
2021/10/11 12:33:44;;;;;;;;;;;10.10;75.10;;;;;;5039366;28;87191;-49
2021/10/11 12:36:12;;;;;;;;;;;10.10;75.10;;;;;;5039237;28;87525;-48
2021/10/11 12:38:39;;;;;;;;;;;10.10;75.30;;;;;;5036387;28;88172;-47
2021/10/11 12:41:15;;;;;;;;;;;10.20;75.10;;;;;;5038615;28;87854;-50
2021/10/11 12:43:55;;;;;;;;;;;10.20;75.40;;;;;;5035607;28;89511;-47
2021/10/11 12:46:21;;;;;;;;;;;10.20;75.40;;;;;;5039758;28;89697;-49
2021/10/11 12:48:59;;;;;;;;;;;10.20;75.30;;;;;;5039943;28;87540;-52
2021/10/11 12:51:26;;;;;;;;;;;10.20;74.90;;;;;;5043440;28;89776;-53
2021/10/11 12:54:00;;;;;;;;;;;10.20;75.30;;;;;;5041813;28;87251;-49
2021/10/11 12:56:26;;;;;;;;;;;10.20;75.30;;;;;;5043334;28;88630;-50
2021/10/11 12:58:56;;;;;;;;;;;10.20;75.90;;;;;;5043423;28;87419;-48
2021/10/11 13:01:21;;;;;;;;;;;10.20;75.60;;;;;;5039458;28;88040;-49
2021/10/11 13:03:47;;;;;;;;;;;10.20;75.60;;;;;;5039882;28;87150;-52
2021/10/11 13:06:19;;;;;;;;;;;10.30;75.70;;;;;;5043550;28;88354;-49
2021/10/11 13:08:44;;;;;;;;;;;10.30;75.50;;;;;;5038131;28;88114;-51
2021/10/11 13:11:10;;;;;;;;;;;10.20;75.90;;;;;;5039558;28;88429;-50
2021/10/11 13:13:35;;;;;;;;;;;10.20;75.30;;;;;;5040901;28;87143;-49
2021/10/11 13:16:03;;;;;;;;;;;10.20;76.00;;;;;;5040946;28;87771;-48
2021/10/11 13:18:29;;;;;;;;;;;10.20;76.30;;;;;;5038956;28;87188;-52
2021/10/11 13:20:54;;;;;;;;;;;10.20;76.50;;;;;;5039108;28;87206;-48
2021/10/11 13:23:20;;;;;;;;;;;10.20;75.90;;;;;;5040255;28;87162;-48
2021/10/11 13:25:45;;;;;;;;;;;10.20;76.60;;;;;;5041012;28;89142;-48
2021/10/11 13:28:11;;;;;;;;;;;10.30;76.30;;;;;;5044227;28;87189;-48
2021/10/11 13:33:51;;;;;;;;;;;10.30;76.60;;;;;;5039687;28;88081;-48
2021/10/11 13:36:39;;;;;;;;;;;10.30;76.40;;;;;;5039225;28;89338;-50
2021/10/11 14:27:49;;;;;;;;;;;11.40;82.40;;;;;;5017583;28;88093;-52
2021/10/11 14:30:25;;;;;;;;;;;11.50;82.50;;;;;;5017160;28;88999;-51
2021/10/11 15:58:13;;;;;;;;;;;11.70;78.30;;;;;;5016611;28;87325;-47
2021/10/11 16:00:31;;;;;;;;;;;11.70;78.30;;;;;;5017206;28;87152;-50
2021/10/11 16:03:04;;;;;;;;;;;11.60;79.20;;;;;;5016708;28;88651;-46
2021/10/11 16:05:30;;;;;;;;;;;11.60;79.50;;;;;;5020027;28;87850;-47
2021/10/11 16:07:56;;;;;;;;;;;11.60;79.30;;;;;;5019112;28;88197;-47
2021/10/11 16:10:21;;;;;;;;;;;11.60;79.30;;;;;;5015886;28;87307;-47
2021/10/11 16:12:47;;;;;;;;;;;11.60;78.90;;;;;;5016597;28;88553;-49
2021/10/11 16:15:13;;;;;;;;;;;11.60;78.70;;;;;;5019605;28;88089;-50
2021/10/11 16:17:39;;;;;;;;;;;11.60;80.20;;;;;;5016399;28;87739;-55
2021/10/11 16:20:08;;;;;;;;;;;11.60;79.80;;;;;;5016080;28;87146;-59
2021/10/11 16:22:37;;;;;;;;;;;11.60;81.30;;;;;;5017090;28;88015;-63
2021/10/11 16:25:04;;;;;;;;;;;11.60;80.50;;;;;;5022181;28;89058;-60
2021/10/11 16:27:29;;;;;;;;;;;11.60;81.40;;;;;;5021964;28;87235;-61
2021/10/11 16:29:55;;;;;;;;;;;11.70;80.30;;;;;;5023425;28;87130;-61
2021/10/11 16:32:20;;;;;;;;;;;11.60;80.60;;;;;;5022983;28;87258;-70
2021/10/11 16:34:46;;;;;;;;;;;11.60;80.80;;;;;;5023042;28;87986;-60
2021/10/11 16:37:11;;;;;;;;;;;11.50;80.80;;;;;;5022988;28;88927;-58
2021/10/11 16:39:37;;;;;;;;;;;11.60;80.90;;;;;;5019167;28;88123;-59